sensor_id;sensor_type;location;lat;lon;timestamp;pressure;altitude;pressure_sealevel;temperature;humidity
47712;BME280;57457;51.634;5.886;2023-04-28T00:03:23;101100;;;10.4;71.3
47712;BME280;57457;51.634;5.886;2023-04-28T00:33:26;101100;;;10.2;74.8
47712;BME280;57457;51.634;5.886;2023-04-28T00:58:13;101100;;;9.9;77.5
47712;BME280;57457;51.634;5.886;2023-04-28T01:22:34;101000;;;9.7;79.4
47712;BME280;57457;51.634;5.886;2023-04-28T01:44:17;101000;;;9.5;79.5
47712;BME280;57457;51.634;5.886;2023-04-28T02:06:57;101000;;;9.3;80.3
47712;BME280;57457;51.634;5.886;2023-04-28T02:28:27;100900;;;9.2;80.5
47712;BME280;57457;51.634;5.886;2023-04-28T02:52:29;100900;;;9.0;81.8
47712;BME280;57457;51.634;5.886;2023-04-28T03:19:04;100900;;;9.0;83.0
47712;BME280;57457;51.634;5.886;2023-04-28T03:39:28;100900;;;8.9;83.3
47712;BME280;57457;51.634;5.886;2023-04-28T03:55:12;100800;;;8.9;84.0
47712;BME280;57457;51.634;5.886;2023-04-28T04:13:03;100800;;;9.0;84.7
47712;BME280;57457;51.634;5.886;2023-04-28T04:32:17;100800;;;9.1;85.1
47712;BME280;57457;51.634;5.886;2023-04-28T04:55:27;100800;;;9.2;85.1
47712;BME280;57457;51.634;5.886;2023-04-28T05:17:30;100800;;;9.5;85.2
47712;BME280;57457;51.634;5.886;2023-04-28T05:34:03;100800;;;9.7;85.4
47712;BME280;57457;51.634;5.886;2023-04-28T05:52:05;100800;;;10.1;85.0
47712;BME280;57457;51.634;5.886;2023-04-28T06:10:51;100800;;;10.4;84.6
47712;BME280;57457;51.634;5.886;2023-04-28T06:35:46;100800;;;10.7;83.7
47712;BME280;57457;51.634;5.886;2023-04-28T07:11:45;100700;;;11.7;82.9
47712;BME280;57457;51.634;5.886;2023-04-28T07:27:42;100700;;;12.2;82.7
47712;BME280;57457;51.634;5.886;2023-04-28T07:43:09;100700;;;12.6;82.1
47712;BME280;57457;51.634;5.886;2023-04-28T08:08:02;100700;;;13.1;81.4
47712;BME280;57457;51.634;5.886;2023-04-28T08:33:30;100700;;;13.7;82.2
47712;BME280;57457;51.634;5.886;2023-04-28T08:51:22;100700;;;14.1;83.4
47712;BME280;57457;51.634;5.886;2023-04-28T09:09:51;100700;;;14.3;83.3
47712;BME280;57457;51.634;5.886;2023-04-28T09:24:45;100700;;;14.5;84.0
47712;BME280;57457;51.634;5.886;2023-04-28T09:39:28;100700;;;14.7;83.4
47712;BME280;57457;51.634;5.886;2023-04-28T10:01:49;100700;;;14.9;84.6
47712;BME280;57457;51.634;5.886;2023-04-28T10:36:16;100700;;;14.9;85.9
47712;BME280;57457;51.634;5.886;2023-04-28T10:49:04;100700;;;14.9;86.2
47712;BME280;57457;51.634;5.886;2023-04-28T11:03:05;100700;;;14.9;86.4
47712;BME280;57457;51.634;5.886;2023-04-28T11:18:10;100700;;;14.9;86.4
47712;BME280;57457;51.634;5.886;2023-04-28T11:34:20;100700;;;14.8;86.1
47712;BME280;57457;51.634;5.886;2023-04-28T11:49:36;100700;;;15.1;83.8
47712;BME280;57457;51.634;5.886;2023-04-28T12:03:11;100700;;;15.5;83.1
47712;BME280;57457;51.634;5.886;2023-04-28T12:17:16;100700;;;15.9;82.1
47712;BME280;57457;51.634;5.886;2023-04-28T12:43:50;100700;;;16.2;83.7
47712;BME280;57457;51.634;5.886;2023-04-28T12:57:36;100700;;;16.0;84.7
47712;BME280;57457;51.634;5.886;2023-04-28T13:10:54;100700;;;15.9;85.4
47712;BME280;57457;51.634;5.886;2023-04-28T13:24:23;100700;;;15.7;86.1
47712;BME280;57457;51.634;5.886;2023-04-28T13:39:15;100700;;;15.5;85.4
47712;BME280;57457;51.634;5.886;2023-04-28T13:53:39;100800;;;15.2;86.2
47712;BME280;57457;51.634;5.886;2023-04-28T14:19:28;100800;;;14.7;84.3
47712;BME280;57457;51.634;5.886;2023-04-28T14:32:20;100800;;;15.1;83.0
47712;BME280;57457;51.634;5.886;2023-04-28T14:46:52;100800;;;15.4;82.5
47712;BME280;57457;51.634;5.886;2023-04-28T15:02:03;100800;;;15.7;82.3
47712;BME280;57457;51.634;5.886;2023-04-28T15:15:46;100800;;;15.8;85.2
47712;BME280;57457;51.634;5.886;2023-04-28T15:28:47;100800;;;15.4;86.3
47712;BME280;57457;51.634;5.886;2023-04-28T15:42:21;100800;;;15.1;86.4
47712;BME280;57457;51.634;5.886;2023-04-28T15:59:07;100800;;;14.9;86.8
47712;BME280;57457;51.634;5.886;2023-04-28T16:32:47;100800;;;14.9;85.1
47712;BME280;57457;51.634;5.886;2023-04-28T16:47:15;100800;;;15.1;85.0
47712;BME280;57457;51.634;5.886;2023-04-28T17:01:38;100800;;;15.2;85.0
47712;BME280;57457;51.634;5.886;2023-04-28T17:39:38;100800;;;15.0;86.3
47712;BME280;57457;51.634;5.886;2023-04-28T18:00:10;100800;;;15.0;87.1
47712;BME280;57457;51.634;5.886;2023-04-28T18:14:53;100800;;;14.8;87.3
47712;BME280;57457;51.634;5.886;2023-04-28T18:36:07;100900;;;14.7;87.5
47712;BME280;57457;51.634;5.886;2023-04-28T18:57:31;100900;;;14.7;87.5
47712;BME280;57457;51.634;5.886;2023-04-28T19:13:24;100900;;;14.5;88.2
47712;BME280;57457;51.634;5.886;2023-04-28T19:28:11;100900;;;14.2;88.5
47712;BME280;57457;51.634;5.886;2023-04-28T19:44:53;100900;;;14.0;88.5
47712;BME280;57457;51.634;5.886;2023-04-28T20:03:40;100900;;;13.9;88.2
47712;BME280;57457;51.634;5.886;2023-04-28T20:23:33;100900;;;13.8;87.9
47712;BME280;57457;51.634;5.886;2023-04-28T20:45:29;101000;;;13.7;87.1
47712;BME280;57457;51.634;5.886;2023-04-28T21:06:35;101000;;;13.6;86.7
47712;BME280;57457;51.634;5.886;2023-04-28T21:26:16;101000;;;13.4;86.7
47712;BME280;57457;51.634;5.886;2023-04-28T21:46:00;101000;;;13.1;86.8
47712;BME280;57457;51.634;5.886;2023-04-28T22:06:06;101000;;;12.9;86.7
47712;BME280;57457;51.634;5.886;2023-04-28T22:38:56;101000;;;12.4;86.2
47712;BME280;57457;51.634;5.886;2023-04-28T22:54:19;101000;;;12.2;86.5
47712;BME280;57457;51.634;5.886;2023-04-28T23:07:54;101100;;;12.0;86.7
47712;BME280;57457;51.634;5.886;2023-04-28T23:20:27;101100;;;11.8;86.8
47712;BME280;57457;51.634;5.886;2023-04-28T23:53:56;101100;;;11.5;86.7
